Time;durP1;ratioP1;P1;durP2;ratioP2;P2;SDS_P1;SDS_P2;PMS_P1;PMS_P2;Temp;Humidity;BMP_temperature;BMP_pressure;BME280_temperature;BME280_humidity;BME280_pressure;Samples;Min_cycle;Max_cycle;Signal;HPM_P1;HPM_P2
2022/01/22 00:01:38;;;;;;;0.75;0.50;;;;;;;20.13;42.01;97194.63;13066514;22;20454;-54
2022/01/22 00:07:01;;;;;;;1.25;0.40;;;;;;;20.10;42.03;97185.25;13039858;22;20027;-55
2022/01/22 00:12:44;;;;;;;0.60;0.50;;;;;;;20.09;42.05;97177.44;13043696;22;20016;-54
2022/01/22 00:18:04;;;;;;;0.63;0.52;;;;;;;20.08;41.97;97148.81;13043206;22;20015;-54
2022/01/22 00:23:26;;;;;;;1.20;0.32;;;;;;;20.06;41.87;97162.66;13042977;22;20497;-55
2022/01/22 00:28:46;;;;;;;0.50;0.50;;;;;;;20.04;41.92;97147.88;13064779;22;20015;-55
2022/01/22 00:34:06;;;;;;;0.60;0.60;;;;;;;20.03;42.01;97135.44;13043498;22;20483;-55
2022/01/22 00:39:26;;;;;;;0.68;0.50;;;;;;;20.00;41.91;97120.66;13045988;22;20015;-55
2022/01/22 00:44:46;;;;;;;0.40;0.40;;;;;;;19.97;41.87;97110.47;13066699;22;20015;-55
2022/01/22 00:50:08;;;;;;;0.52;0.47;;;;;;;19.97;41.78;97125.91;13046001;22;20015;-55
2022/01/22 00:55:27;;;;;;;0.52;0.52;;;;;;;19.94;41.95;97097.59;13045405;22;20504;-55
2022/01/22 01:00:47;;;;;;;0.43;0.40;;;;;;;19.93;41.81;97104.94;13045938;22;20015;-55
2022/01/22 01:06:07;;;;;;;0.40;0.40;;;;;;;19.89;41.90;97101.25;13044295;22;20564;-55
2022/01/22 01:11:29;;;;;;;0.50;0.40;;;;;;;19.88;41.92;97096.97;13042884;22;20019;-55
2022/01/22 01:33:57;;;;;;;0.80;0.40;;;;;;;19.80;41.88;97057.22;13043580;22;19946;-54
2022/01/22 01:39:26;;;;;;;0.43;0.43;;;;;;;19.78;42.01;97061.34;13021151;22;20022;-54
2022/01/22 01:44:46;;;;;;;0.40;0.40;;;;;;;19.75;41.78;97076.31;13065968;22;20021;-55
2022/01/22 01:50:17;;;;;;;0.40;0.30;;;;;;;19.72;41.80;97055.31;13021989;22;20019;-54
2022/01/22 02:01:18;;;;;;;0.40;0.40;;;;;;;19.71;41.82;97059.09;13005225;22;20489;-55
2022/01/22 02:06:41;;;;;;;0.40;0.40;;;;;;;19.68;41.79;97043.50;13020678;22;20023;-55
2022/01/22 02:12:43;;;;;;;0.45;0.40;;;;;;;19.65;41.65;97042.25;13020802;22;20015;-55
2022/01/22 02:23:43;;;;;;;0.40;0.40;;;;;;;19.63;41.70;97040.97;13046122;22;20351;-55
2022/01/22 02:29:03;;;;;;;0.30;0.30;;;;;;;19.60;41.81;97041.59;13025081;22;20016;-55
2022/01/22 02:34:54;;;;;;;0.30;0.30;;;;;;;19.59;41.60;97034.63;13045982;22;20027;-55
2022/01/22 02:46:06;;;;;;;0.30;0.30;;;;;;;19.53;41.57;97031.28;12973610;22;20019;-55
2022/01/22 02:51:26;;;;;;;0.40;0.25;;;;;;;19.52;41.59;97024.28;13068628;22;20011;-55
2022/01/22 02:56:50;;;;;;;0.60;0.40;;;;;;;19.50;41.70;97016.50;13024089;22;20653;-55
2022/01/22 03:02:14;;;;;;;0.40;0.40;;;;;;;19.50;41.83;97024.63;13047329;22;20377;-55
2022/01/22 03:07:36;;;;;;;0.30;0.30;;;;;;;19.46;41.72;97015.53;13044547;22;20016;-54
2022/01/22 03:18:41;;;;;;;0.32;0.30;;;;;;;19.42;41.71;97024.59;13044952;22;20011;-54
2022/01/22 03:29:41;;;;;;;0.30;0.30;;;;;;;19.39;41.66;97046.88;13023280;22;20041;-53
2022/01/22 03:40:40;;;;;;;0.28;0.28;;;;;;;19.34;41.74;97053.19;13046241;22;20019;-55
2022/01/22 03:46:00;;;;;;;0.40;0.40;;;;;;;19.33;41.56;97057.81;13067368;22;20015;-55
2022/01/22 03:51:20;;;;;;;0.38;0.38;;;;;;;19.31;41.71;97056.53;13023419;22;20546;-55
2022/01/22 03:56:45;;;;;;;0.22;0.22;;;;;;;19.29;41.77;97067.66;13021501;22;20015;-54
2022/01/22 04:08:13;;;;;;;0.40;0.40;;;;;;;19.24;41.85;97084.00;12999425;22;20030;-55
2022/01/22 04:13:34;;;;;;;0.30;0.30;;;;;;;19.24;41.71;97085.91;13022715;22;20022;-55
2022/01/22 04:24:53;;;;;;;0.30;0.30;;;;;;;19.20;41.60;97103.88;13066592;22;20038;-55
2022/01/22 04:30:12;;;;;;;0.43;0.30;;;;;;;19.16;41.71;97103.69;13046070;22;20027;-55
2022/01/22 04:35:32;;;;;;;0.35;0.30;;;;;;;19.14;41.65;97105.91;13045663;22;20088;-55
2022/01/22 04:40:51;;;;;;;0.30;0.30;;;;;;;19.13;41.63;97124.03;13044580;22;20016;-54
2022/01/22 04:46:25;;;;;;;0.30;0.20;;;;;;;19.11;41.65;97122.72;13045679;22;20018;-55
2022/01/22 04:57:25;;;;;;;0.40;0.40;;;;;;;19.06;41.66;97137.19;13021763;22;20022;-55
2022/01/22 05:02:45;;;;;;;0.30;0.30;;;;;;;19.04;41.74;97136.69;13044396;22;20049;-55
2022/01/22 05:08:23;;;;;;;0.30;0.30;;;;;;;19.02;41.70;97149.72;13044518;22;20026;-54
2022/01/22 05:14:06;;;;;;;0.30;0.30;;;;;;;19.02;41.79;97147.03;13045211;22;20064;-54
2022/01/22 05:19:36;;;;;;;0.20;0.20;;;;;;;19.00;41.75;97162.72;13022290;22;20015;-54
2022/01/22 05:25:00;;;;;;;0.20;0.20;;;;;;;18.98;41.66;97183.84;13022266;22;20098;-55
2022/01/22 05:42:09;;;;;;;0.20;0.20;;;;;;;18.92;41.76;97190.50;13044836;22;20015;-55
2022/01/22 05:47:29;;;;;;;0.30;0.30;;;;;;;18.91;41.86;97195.06;13043989;22;20015;-55
2022/01/22 05:53:00;;;;;;;0.30;0.30;;;;;;;18.91;41.70;97191.59;13067021;22;20025;-55
2022/01/22 06:04:03;;;;;;;0.20;0.20;;;;;;;18.91;41.63;97218.59;13046400;22;20016;-54
2022/01/22 06:09:24;;;;;;;0.30;0.22;;;;;;;18.90;41.68;97225.09;13024826;22;20026;-55
2022/01/22 06:14:44;;;;;;;0.20;0.20;;;;;;;18.92;41.75;97233.69;13024698;22;20072;-54
2022/01/22 06:20:06;;;;;;;0.52;0.30;;;;;;;18.94;41.64;97253.06;13025664;22;20015;-55
2022/01/22 06:25:27;;;;;;;0.20;0.20;;;;;;;18.94;41.73;97261.97;13025042;22;20022;-55
2022/01/22 06:30:46;;;;;;;0.20;0.20;;;;;;;18.95;41.56;97265.47;13048365;22;20038;-55
2022/01/22 06:36:06;;;;;;;0.20;0.20;;;;;;;18.95;41.57;97268.16;13024402;22;20084;-55
2022/01/22 06:41:45;;;;;;;0.20;0.20;;;;;;;18.94;41.68;97278.16;13045746;22;20659;-55
2022/01/22 06:47:43;;;;;;;0.20;0.20;;;;;;;18.94;41.62;97288.97;12789133;23;20071;-54
2022/01/22 06:53:14;;;;;;;0.25;0.25;;;;;;;18.96;41.72;97304.88;13007190;22;20018;-54
2022/01/22 06:58:45;;;;;;;0.10;0.10;;;;;;;18.95;41.72;97314.06;13024732;22;20015;-54
2022/01/22 07:04:05;;;;;;;0.20;0.20;;;;;;;18.96;41.66;97324.56;13023297;22;20015;-55
2022/01/22 07:09:46;;;;;;;0.40;0.20;;;;;;;18.99;41.55;97349.34;13045542;22;20015;-54
2022/01/22 07:15:06;;;;;;;0.30;0.30;;;;;;;19.01;41.85;97366.03;13068212;22;20077;-54
2022/01/22 07:20:29;;;;;;;0.20;0.20;;;;;;;19.03;41.76;97371.91;13024291;22;20026;-54
2022/01/22 07:25:49;;;;;;;0.50;0.20;;;;;;;19.07;41.68;97392.63;13024404;22;20015;-54
2022/01/22 07:31:43;;;;;;;0.20;0.20;;;;;;;19.10;41.66;97397.41;12943009;22;20604;-55
2022/01/22 07:37:05;;;;;;;0.20;0.20;;;;;;;19.13;41.76;97404.06;13024324;22;20034;-54
2022/01/22 07:42:26;;;;;;;0.20;0.20;;;;;;;19.17;41.81;97413.97;13023968;22;20019;-55
2022/01/22 07:48:14;;;;;;;0.20;0.20;;;;;;;19.21;41.62;97424.16;13045974;22;20022;-55
2022/01/22 07:54:01;;;;;;;0.20;0.20;;;;;;;19.24;41.55;97440.56;13005727;22;20558;-55
2022/01/22 07:59:24;;;;;;;0.20;0.20;;;;;;;19.28;41.66;97448.84;13043821;22;20018;-55
2022/01/22 08:04:45;;;;;;;0.30;0.30;;;;;;;19.31;41.61;97445.56;13043606;22;20020;-54
2022/01/22 08:10:27;;;;;;;0.25;0.25;;;;;;;19.35;41.56;97457.34;13067002;22;20455;-54
2022/01/22 08:15:47;;;;;;;0.20;0.20;;;;;;;19.39;41.53;97465.63;13022789;22;20023;-55
2022/01/22 08:21:06;;;;;;;0.20;0.20;;;;;;;19.43;41.43;97477.41;13041568;22;20026;-55
2022/01/22 08:27:04;;;;;;;0.20;0.20;;;;;;;19.48;41.35;97480.81;12988487;22;20019;-55
2022/01/22 08:37:54;;;;;;;0.20;0.20;;;;;;;19.55;41.20;97481.16;13022512;22;20046;-55
2022/01/22 08:43:14;;;;;;;0.55;0.30;;;;;;;19.58;41.32;97498.66;13045311;22;20071;-55
2022/01/22 08:48:35;;;;;;;0.20;0.20;;;;;;;19.63;41.24;97500.44;13021997;22;20029;-54
2022/01/22 08:53:55;;;;;;;0.30;0.30;;;;;;;19.68;41.16;97503.00;13021844;22;20094;-55
2022/01/22 08:59:15;;;;;;;0.30;0.20;;;;;;;19.71;41.12;97510.53;13019116;22;20373;-55
2022/01/22 09:04:38;;;;;;;5.32;0.30;;;;;;;19.74;41.04;97529.66;13019221;22;20015;-55
2022/01/22 09:10:22;;;;;;;0.55;0.22;;;;;;;19.76;39.16;97532.06;13018330;22;20335;-55
2022/01/22 09:16:02;;;;;;;1.08;0.43;;;;;;;19.80;39.71;97543.03;13065244;22;20053;-55
2022/01/22 09:21:22;;;;;;;0.70;0.50;;;;;;;19.85;39.82;97549.13;13044272;22;20034;-55
2022/01/22 09:26:42;;;;;;;0.75;0.40;;;;;;;19.92;39.79;97562.22;13045361;22;20020;-55
2022/01/22 09:32:02;;;;;;;0.50;0.50;;;;;;;19.94;39.88;97568.91;13026718;22;20477;-55
2022/01/22 09:37:41;;;;;;;0.50;0.50;;;;;;;19.98;39.88;97565.63;13049708;22;20404;-54
2022/01/22 09:43:36;;;;;;;0.80;0.50;;;;;;;19.99;35.47;97573.41;12909483;22;20064;-55
2022/01/22 09:49:25;;;;;;;;;;;;;;;20.02;38.32;97578.19;12951751;22;20096;-55
2022/01/22 09:55:04;;;;;;;0.45;0.45;;;;;;;20.07;38.56;97585.38;13048496;22;19998;-55
2022/01/22 10:00:50;;;;;;;0.65;0.40;;;;;;;20.13;39.17;97589.56;13009117;22;20021;-54
2022/01/22 10:06:28;;;;;;;17.05;7.53;;;;;;;20.20;40.38;97598.03;13025200;22;20489;-55
2022/01/22 10:12:16;;;;;;;31.92;13.68;;;;;;;20.29;38.70;97607.03;13069113;22;20015;-54
2022/01/22 10:17:56;;;;;;;27.70;13.50;;;;;;;20.41;39.36;97608.38;13048146;22;20440;-53
2022/01/22 10:23:23;;;;;;;23.40;11.57;;;;;;;20.49;38.67;97613.81;13046366;22;20072;-54
2022/01/22 10:28:47;;;;;;;28.50;12.90;;;;;;;20.57;38.23;97612.25;13069135;22;20011;-54
2022/01/22 10:34:08;;;;;;;19.35;9.90;;;;;;;20.63;37.35;97611.03;13047353;22;20015;-54
2022/01/22 10:39:47;;;;;;;16.15;8.15;;;;;;;20.68;36.23;97610.94;13028292;22;20015;-54
2022/01/22 10:45:09;;;;;;;12.93;7.15;;;;;;;20.73;36.00;97612.69;13024202;22;20015;-54
2022/01/22 10:50:29;;;;;;;12.20;6.25;;;;;;;20.79;35.13;97621.47;13068523;22;20152;-53
2022/01/22 10:56:02;;;;;;;9.38;5.57;;;;;;;20.82;34.25;97618.94;13046880;22;20011;-55
2022/01/22 11:01:25;;;;;;;9.10;4.72;;;;;;;20.87;34.13;97626.13;13068535;22;20026;-53
2022/01/22 11:06:47;;;;;;;9.38;3.80;;;;;;;20.91;33.89;97629.81;13023686;22;20019;-52
2022/01/22 11:12:07;;;;;;;6.35;3.70;;;;;;;20.94;33.20;97629.19;13047220;22;20023;-53
2022/01/22 11:17:32;;;;;;;8.30;2.85;;;;;;;20.97;32.71;97644.78;13067110;22;20021;-54
2022/01/22 11:22:52;;;;;;;5.30;2.70;;;;;;;21.02;32.37;97668.25;13047074;22;20021;-54
2022/01/22 11:28:12;;;;;;;4.78;2.40;;;;;;;21.05;31.78;97671.16;13047017;22;20026;-55
2022/01/22 11:33:32;;;;;;;3.55;2.00;;;;;;;21.08;31.92;97667.00;13064235;22;20084;-55
2022/01/22 11:38:57;;;;;;;3.60;1.80;;;;;;;21.10;31.66;97668.28;13022529;22;20073;-54
2022/01/22 11:44:24;;;;;;;2.50;1.60;;;;;;;21.15;31.70;97678.19;13067108;22;20026;-54
2022/01/22 11:50:06;;;;;;;2.10;1.33;;;;;;;21.16;30.82;97690.63;13067065;22;20017;-55
2022/01/22 11:55:25;;;;;;;2.53;1.42;;;;;;;21.19;31.07;97692.72;13045501;22;20045;-54
2022/01/22 12:00:45;;;;;;;1.63;1.20;;;;;;;21.23;31.05;97684.72;13042765;22;20026;-55
2022/01/22 12:06:05;;;;;;;2.13;1.20;;;;;;;21.26;31.23;97684.91;13066289;22;20017;-54
2022/01/22 12:18:01;;;;;;;1.42;1.00;;;;;;;21.32;30.49;97691.78;12786578;23;20372;-54
2022/01/22 12:23:29;;;;;;;2.58;1.30;;;;;;;21.32;30.49;97691.78;13034754;22;20048;-54
2022/01/22 12:28:49;;;;;;;1.55;1.15;;;;;;;21.39;30.10;97714.94;13044669;22;20015;-55
2022/01/22 12:34:08;;;;;;;2.78;1.02;;;;;;;21.41;30.30;97726.28;13043189;22;20084;-53
2022/01/22 12:39:30;;;;;;;2.13;0.95;;;;;;;21.42;30.07;97720.50;13044324;22;20023;-54
2022/01/22 12:44:56;;;;;;;2.33;1.10;;;;;;;21.43;29.87;97724.88;13066131;22;20015;-54
2022/01/22 12:50:16;;;;;;;2.25;1.20;;;;;;;21.43;29.71;97721.34;13065868;22;20073;-54
2022/01/22 13:01:30;;;;;;;2.75;1.50;;;;;;;21.45;28.89;97719.94;13004795;22;20026;-54
2022/01/22 13:06:52;;;;;;;2.50;1.20;;;;;;;21.48;29.14;97718.50;13043739;22;20095;-55
2022/01/22 13:12:18;;;;;;;3.13;1.48;;;;;;;21.50;28.98;97721.69;13065982;22;20015;-54
2022/01/22 13:17:38;;;;;;;3.33;1.55;;;;;;;21.52;29.22;97720.28;13065756;22;20072;-54
2022/01/22 13:22:58;;;;;;;5.07;1.95;;;;;;;21.53;28.78;97723.78;13045056;22;20546;-55
2022/01/22 13:28:17;;;;;;;4.72;1.95;;;;;;;21.57;28.95;97721.25;13045135;22;20019;-54
2022/01/22 13:33:45;;;;;;;3.22;1.85;;;;;;;21.58;28.59;97729.06;13044707;22;20508;-54
2022/01/22 13:50:07;;;;;;;3.53;1.77;;;;;;;21.65;27.87;97753.78;13044582;22;20089;-53
2022/01/22 13:55:27;;;;;;;3.17;1.58;;;;;;;21.68;27.71;97761.31;13064366;22;20099;-54
2022/01/22 14:00:47;;;;;;;4.10;1.58;;;;;;;21.68;27.98;97760.53;13044633;22;20064;-54
2022/01/22 14:06:06;;;;;;;4.15;1.70;;;;;;;21.71;27.59;97765.31;13020001;22;20027;-54
2022/01/22 14:11:26;;;;;;;3.70;1.90;;;;;;;21.70;27.36;97774.56;13065307;22;20033;-54
2022/01/22 14:16:54;;;;;;;4.85;2.15;;;;;;;21.71;27.28;97776.16;13068792;22;20019;-54
2022/01/22 14:22:13;;;;;;;4.13;1.88;;;;;;;21.73;27.66;97774.72;13047984;22;20019;-54
2022/01/22 14:27:33;;;;;;;2.72;1.70;;;;;;;21.75;27.81;97773.59;13047806;22;20065;-55
2022/01/22 14:32:58;;;;;;;2.80;1.70;;;;;;;21.76;27.36;97772.47;13048070;22;20019;-55
2022/01/22 14:38:19;;;;;;;2.22;1.55;;;;;;;21.79;27.32;97777.28;13047988;22;20019;-54
2022/01/22 14:44:14;;;;;;;2.50;1.70;;;;;;;21.80;27.24;97776.19;13047607;22;20016;-55
2022/01/22 14:49:42;;;;;;;2.28;1.58;;;;;;;21.81;26.88;97789.41;13068530;22;20019;-55
2022/01/22 14:55:05;;;;;;;2.45;1.42;;;;;;;21.80;27.02;97782.41;13067759;22;20015;-54
2022/01/22 15:00:25;;;;;;;2.75;1.48;;;;;;;21.81;26.67;97794.84;13047548;22;20504;-55
2022/01/22 15:05:44;;;;;;;2.25;1.23;;;;;;;21.81;26.71;97805.69;13046907;22;20015;-54
2022/01/22 15:11:04;;;;;;;2.03;1.15;;;;;;;21.81;26.80;97813.03;13047461;22;20019;-55
2022/01/22 15:16:30;;;;;;;2.17;1.45;;;;;;;21.81;26.43;97821.16;13046808;22;20011;-54
2022/01/22 15:21:50;;;;;;;1.65;1.30;;;;;;;21.80;26.46;97823.09;13046864;22;20443;-53
2022/01/22 15:27:12;;;;;;;1.27;1.02;;;;;;;21.80;26.14;97833.16;13067296;22;20022;-54
2022/01/22 15:37:59;;;;;;;1.65;1.10;;;;;;;21.82;26.63;97839.84;13062384;22;20112;-55
2022/01/22 15:43:18;;;;;;;1.83;1.13;;;;;;;21.82;26.79;97836.34;13046547;22;20039;-54
2022/01/22 15:48:41;;;;;;;1.77;1.23;;;;;;;21.82;26.50;97839.84;13067399;22;20064;-55
2022/01/22 15:54:00;;;;;;;1.40;1.10;;;;;;;21.83;26.84;97852.28;13044229;22;20015;-55
2022/01/22 15:59:21;;;;;;;2.33;1.20;;;;;;;21.73;25.77;97845.22;13043636;22;20019;-54
2022/01/22 16:04:48;;;;;;;3.05;1.20;;;;;;;21.77;26.06;97850.81;13043754;22;20113;-54
2022/01/22 16:10:09;;;;;;;1.52;1.38;;;;;;;21.76;25.92;97859.28;13023127;22;20439;-55
2022/01/22 16:15:29;;;;;;;2.40;1.70;;;;;;;;;;13044165;22;20086;-54
2022/01/22 16:20:49;;;;;;;7.88;2.20;;;;;;;21.80;26.48;97866.50;13045741;22;20019;-55
2022/01/22 16:26:08;;;;;;;3.67;2.20;;;;;;;21.85;26.63;97869.03;13066217;22;20019;-54
2022/01/22 16:31:31;;;;;;;3.15;2.17;;;;;;;21.88;26.20;97882.00;13065983;22;20074;-54
2022/01/22 16:36:51;;;;;;;2.92;2.20;;;;;;;21.90;26.12;97877.06;13044267;22;20094;-55
2022/01/22 16:42:15;;;;;;;2.53;1.98;;;;;;;21.92;26.51;97882.97;13044435;22;20021;-55
2022/01/22 16:58:57;;;;;;;2.50;1.80;;;;;;;21.98;26.47;97890.97;13044484;22;20037;-54
2022/01/22 17:04:21;;;;;;;2.17;1.98;;;;;;;21.98;26.37;97889.06;13065466;22;20334;-55
2022/01/22 17:15:00;;;;;;;2.60;1.85;;;;;;;22.02;26.20;97902.81;13066023;22;20090;-55
2022/01/22 17:20:20;;;;;;;2.17;1.75;;;;;;;22.03;26.04;97913.34;13041093;22;20019;-55
2022/01/22 17:25:40;;;;;;;2.45;1.73;;;;;;;22.04;26.22;97909.50;13060179;22;20019;-54
2022/01/22 17:30:59;;;;;;;2.13;1.88;;;;;;;22.06;25.98;97923.56;13061683;22;20015;-55
2022/01/22 17:36:19;;;;;;;2.97;2.30;;;;;;;22.08;26.12;97915.09;13041200;22;20022;-55
2022/01/22 17:41:44;;;;;;;3.20;2.10;;;;;;;22.10;25.97;97924.53;13042923;22;20145;-55
2022/01/22 17:47:05;;;;;;;2.95;2.03;;;;;;;22.14;25.96;97932.06;13044184;22;20094;-55
2022/01/22 17:52:25;;;;;;;3.75;2.20;;;;;;;22.14;25.98;97930.13;13047765;22;20019;-54
2022/01/22 17:57:44;;;;;;;3.22;2.20;;;;;;;22.14;25.78;97934.78;13049176;22;20037;-53
2022/01/22 18:03:05;;;;;;;3.50;2.20;;;;;;;22.15;25.61;97941.78;13047532;22;20019;-55
2022/01/22 18:08:25;;;;;;;2.83;2.33;;;;;;;22.15;25.38;97931.75;13047953;22;20386;-54
2022/01/22 18:13:45;;;;;;;2.38;2.17;;;;;;;22.16;25.54;97944.19;13047958;22;20011;-55
2022/01/22 18:19:05;;;;;;;3.08;2.15;;;;;;;22.16;25.55;97938.75;13048278;22;20459;-55
2022/01/22 18:24:25;;;;;;;4.85;2.33;;;;;;;22.19;25.78;97940.88;13048434;22;20011;-54
2022/01/22 18:29:45;;;;;;;2.20;2.00;;;;;;;22.20;25.31;97936.22;13025003;22;20622;-55
2022/01/22 18:35:06;;;;;;;2.53;2.10;;;;;;;22.21;25.12;97933.19;13047331;22;20017;-55
2022/01/22 18:40:26;;;;;;;2.78;2.05;;;;;;;22.22;25.18;97944.84;13048344;22;20019;-54
2022/01/22 18:45:51;;;;;;;2.35;2.15;;;;;;;22.22;25.25;97948.34;13068088;22;20035;-54
2022/01/22 18:51:12;;;;;;;2.65;2.22;;;;;;;22.22;25.07;97937.50;13046989;22;20019;-54
2022/01/22 18:56:31;;;;;;;3.83;2.35;;;;;;;22.20;25.43;97937.00;13067794;22;20027;-54
2022/01/22 19:01:51;;;;;;;2.67;1.92;;;;;;;22.20;25.35;97942.44;13046657;22;20098;-55
2022/01/22 19:07:11;;;;;;;2.55;2.03;;;;;;;22.20;25.56;97947.88;13044097;22;20027;-53
2022/01/22 19:12:31;;;;;;;2.65;2.08;;;;;;;22.20;25.34;97945.16;13068146;22;20015;-53
2022/01/22 19:17:51;;;;;;;2.58;2.08;;;;;;;22.19;25.62;97949.00;13067575;22;20036;-55
2022/01/22 19:29:02;;;;;;;3.22;2.10;;;;;;;22.18;25.45;97947.38;13028340;22;20056;-55
2022/01/22 19:34:23;;;;;;;3.60;2.22;;;;;;;22.18;25.63;97958.25;13046214;22;20019;-55
2022/01/22 19:39:43;;;;;;;2.78;2.03;;;;;;;22.21;25.70;97962.25;13020730;22;20015;-55
2022/01/22 19:45:05;;;;;;;2.40;1.90;;;;;;;22.20;25.69;97958.72;13045945;22;20137;-55
2022/01/22 19:50:25;;;;;;;2.25;1.90;;;;;;;22.21;25.47;97957.63;13044946;22;20025;-54
2022/01/22 19:55:45;;;;;;;2.50;2.20;;;;;;;22.22;25.51;97953.78;13040515;22;20041;-54
2022/01/22 20:01:06;;;;;;;2.63;2.15;;;;;;;22.23;25.27;97949.19;13064213;22;20019;-55
2022/01/22 20:06:26;;;;;;;4.38;2.65;;;;;;;22.24;25.10;97937.19;13045403;22;20027;-55
2022/01/22 20:11:45;;;;;;;3.20;2.70;;;;;;;22.28;25.28;97932.75;13045109;22;20015;-55
2022/01/22 20:17:06;;;;;;;4.25;3.17;;;;;;;22.29;25.02;97931.66;13044191;22;20019;-54
2022/01/22 20:22:25;;;;;;;3.65;3.22;;;;;;;22.29;24.98;97929.75;13044526;22;20140;-55
2022/01/22 20:27:45;;;;;;;3.97;3.33;;;;;;;22.30;25.19;97931.31;13021750;22;20015;-53
2022/01/22 20:33:06;;;;;;;3.88;3.22;;;;;;;22.32;25.02;97925.59;13044747;22;20015;-55
2022/01/22 20:38:25;;;;;;;4.43;3.50;;;;;;;22.31;24.99;97926.72;13045415;22;20114;-54
2022/01/22 20:43:46;;;;;;;4.70;4.20;;;;;;;22.32;24.79;97922.88;13045032;22;20528;-54
2022/01/22 20:49:09;;;;;;;7.15;5.03;;;;;;;22.33;25.08;97920.97;13045332;22;20060;-55
2022/01/22 20:54:29;;;;;;;6.72;5.78;;;;;;;22.35;24.90;97926.91;13043826;22;20065;-52
2022/01/22 20:59:49;;;;;;;7.10;5.85;;;;;;;22.36;24.93;97920.34;13065608;22;20072;-54
2022/01/22 21:05:09;;;;;;;7.57;5.90;;;;;;;22.37;24.91;97919.22;13065305;22;20015;-55
2022/01/22 21:10:30;;;;;;;6.63;5.85;;;;;;;22.39;25.01;97917.00;13044369;22;20015;-55
2022/01/22 21:15:49;;;;;;;8.05;6.55;;;;;;;22.40;24.90;97918.59;13044970;22;20526;-55
2022/01/22 21:21:09;;;;;;;6.63;5.65;;;;;;;22.41;25.46;97928.34;13044194;22;20036;-55
2022/01/22 21:26:29;;;;;;;8.45;5.63;;;;;;;22.40;25.17;97915.88;13047568;22;20016;-55
2022/01/22 21:31:49;;;;;;;7.65;5.60;;;;;;;22.40;25.20;97913.16;13069960;22;20011;-55
2022/01/22 21:37:12;;;;;;;6.68;5.43;;;;;;;22.40;25.37;97905.00;13049257;22;20011;-55
2022/01/22 21:42:31;;;;;;;7.22;5.68;;;;;;;22.40;25.48;97911.22;13049177;22;20381;-54
2022/01/22 21:47:54;;;;;;;5.95;5.15;;;;;;;22.38;25.37;97916.19;13048721;22;20015;-54
2022/01/22 21:53:15;;;;;;;7.03;5.10;;;;;;;22.38;25.36;97910.75;13047955;22;20022;-54
2022/01/22 21:58:35;;;;;;;5.07;4.50;;;;;;;22.36;25.32;97923.84;13048078;22;20073;-54
2022/01/22 22:03:55;;;;;;;5.85;4.97;;;;;;;22.35;25.32;97932.31;13048489;22;20415;-55
2022/01/22 22:09:14;;;;;;;6.93;5.43;;;;;;;22.29;25.16;97927.03;13047311;22;20322;-54
2022/01/22 22:14:34;;;;;;;6.22;4.70;;;;;;;22.27;25.22;97929.25;13048173;22;20015;-54
2022/01/22 22:19:54;;;;;;;6.38;4.53;;;;;;;22.23;25.30;97917.41;13069354;22;20443;-55
2022/01/22 22:25:13;;;;;;;6.05;4.90;;;;;;;22.21;25.30;97918.81;13047682;22;20290;-55
2022/01/22 22:30:33;;;;;;;5.45;4.75;;;;;;;22.17;25.19;97924.09;13048103;22;20027;-55
2022/01/22 22:35:53;;;;;;;5.22;4.40;;;;;;;22.15;25.27;97920.06;13068071;22;20018;-54
2022/01/22 22:41:15;;;;;;;5.97;4.65;;;;;;;22.09;25.26;97931.09;13068809;22;20027;-55
2022/01/22 22:46:34;;;;;;;5.35;4.40;;;;;;;22.06;25.35;97928.19;13047806;22;20447;-55
2022/01/22 22:51:54;;;;;;;6.13;4.50;;;;;;;22.03;25.49;97917.94;13068090;22;20021;-55
2022/01/22 22:57:14;;;;;;;4.82;4.25;;;;;;;22.00;25.38;97919.38;13068405;22;20019;-55
2022/01/22 23:02:33;;;;;;;5.63;4.68;;;;;;;21.96;25.20;97931.19;13043884;22;20022;-55
2022/01/22 23:07:53;;;;;;;6.03;4.20;;;;;;;21.90;25.37;97928.59;13042544;22;20494;-55
2022/01/22 23:13:17;;;;;;;5.78;4.63;;;;;;;21.85;25.47;97939.56;13066439;22;20065;-54
2022/01/22 23:29:54;;;;;;;5.18;4.68;;;;;;;21.73;25.43;97945.56;13044591;22;20015;-55
2022/01/22 23:35:50;;;;;;;5.50;4.50;;;;;;;21.70;25.47;97940.00;13045005;22;20499;-55
2022/01/22 23:47:20;;;;;;;7.05;4.55;;;;;;;21.62;25.63;97954.28;13046802;22;20015;-55
2022/01/22 23:58:15;;;;;;;4.73;4.20;;;;;;;21.51;25.83;97962.69;13046864;22;20037;-54
